D/T METAR WX W/SPE G/SPE TEMP DEWP FEEL
31/01/23 06:50 EGYE 310650Z AUTO 24015KT //// VV/// ///// Q//// 17.3mph 0°C 0°C -2.2°C
31/01/23 04:20 EGYE 310420Z AUTO 25016KT //// VV/// ///// Q//// 18.4mph 0°C 0°C -2.2°C
30/01/23 21:50 EGYE 302150Z AUTO 24008KT //// VV/// ///// Q//// 9.2mph 0°C 0°C -2.2°C
30/01/23 12:50 EGYE 301250Z 29017KT 9999 FEW025 SCT200 ///// Q1023 RMK BLU 19.6mph 0°C 0°C -2.2°C
30/01/23 11:50 EGYE 301150Z 28016KT 9999 FEW025 SCT200 ///// Q1023 RMK BLU 18.4mph 0°C 0°C -2.2°C
30/01/23 10:50 EGYE 301050Z 29016KT CAVOK ///// Q1022 RMK BLU 18.4mph 0°C 0°C -2.2°C
30/01/23 07:50 EGYE 300750Z 28016KT CAVOK ///// Q1020 RMK BLU 18.4mph 0°C 0°C -2.2°C
30/01/23 06:20 EGYE 300620Z AUTO 28015KT //// VV/// ///// Q//// 17.3mph 0°C 0°C -2.2°C
09/01/23 06:20 EGYE 090620Z AUTO 23009KT //// VV/// ///// Q//// 10.4mph 0°C 0°C -2.2°C
09/01/23 05:50 EGYE 090550Z AUTO 23008KT //// VV/// ///// Q//// 9.2mph 0°C 0°C -2.2°C
09/01/23 05:20 EGYE 090520Z AUTO 24008KT //// VV/// ///// Q//// 9.2mph 0°C 0°C -2.2°C
09/01/23 04:50 EGYE 090450Z AUTO 25009KT //// VV/// ///// Q//// 10.4mph 0°C 0°C -2.2°C
09/01/23 04:20 EGYE 090420Z AUTO 24011KT //// VV/// ///// Q//// 12.7mph 0°C 0°C -2.2°C
09/01/23 03:50 EGYE 090350Z AUTO 22007KT //// VV/// ///// Q//// 8.1mph 0°C 0°C -2.2°C
09/01/23 03:20 EGYE 090320Z AUTO 22006KT //// VV/// ///// Q//// 6.9mph 0°C 0°C -2.2°C
09/01/23 02:50 EGYE 090250Z AUTO 23009KT //// VV/// ///// Q//// 10.4mph 0°C 0°C -2.2°C
09/01/23 02:20 EGYE 090220Z AUTO 24010KT //// VV/// ///// Q//// 11.5mph 0°C 0°C -2.2°C
09/01/23 01:20 EGYE 090120Z AUTO 25011KT //// VV/// ///// Q//// 12.7mph 0°C 0°C -2.2°C
09/01/23 00:50 EGYE 090050Z AUTO 24009KT //// VV/// ///// Q//// 10.4mph 0°C 0°C -2.2°C
09/01/23 00:20 EGYE 090020Z AUTO 23009KT //// VV/// ///// Q//// 10.4mph 0°C 0°C -2.2°C
08/01/23 23:50 EGYE 082350Z AUTO 22009KT //// VV/// ///// Q//// 10.4mph 0°C 0°C -2.2°C
08/01/23 23:20 EGYE 082320Z AUTO 21008KT //// VV/// ///// Q//// 9.2mph 0°C 0°C -2.2°C
08/01/23 22:50 EGYE 082250Z AUTO 21009KT //// VV/// ///// Q//// 10.4mph 0°C 0°C -2.2°C
08/01/23 22:20 EGYE 082220Z AUTO 21010KT //// VV/// ///// Q//// 11.5mph 0°C 0°C -2.2°C
08/01/23 21:50 EGYE 082150Z AUTO 20010KT //// VV/// ///// Q//// 11.5mph 0°C 0°C -2.2°C
08/01/23 20:20 EGYE 082020Z AUTO 22011KT //// VV/// ///// Q//// 12.7mph 0°C 0°C -2.2°C
08/01/23 19:20 EGYE 081920Z AUTO 22010KT //// VV/// ///// Q//// 11.5mph 0°C 0°C -2.2°C
08/01/23 18:50 EGYE 081850Z AUTO 21007KT //// VV/// ///// Q//// 8.1mph 0°C 0°C -2.2°C
08/01/23 18:20 EGYE 081820Z AUTO 22008KT //// VV/// ///// Q//// 9.2mph 0°C 0°C -2.2°C
08/01/23 17:50 EGYE 081750Z AUTO 23009KT //// VV/// ///// Q//// 10.4mph 0°C 0°C -2.2°C
08/01/23 17:20 EGYE 081720Z AUTO 22008KT //// VV/// ///// Q//// 9.2mph 0°C 0°C -2.2°C
08/01/23 16:50 EGYE 081650Z AUTO 22011KT //// VV/// ///// Q//// 12.7mph 0°C 0°C -2.2°C
08/01/23 16:20 EGYE 081620Z AUTO 20010KT //// VV/// ///// Q//// 11.5mph 0°C 0°C -2.2°C
08/01/23 15:50 EGYE 081550Z AUTO 20012KT //// VV/// ///// Q//// 13.8mph 0°C 0°C -2.2°C
08/01/23 15:20 EGYE 081520Z AUTO 20015KT //// VV/// ///// Q//// 17.3mph 0°C 0°C -2.2°C
08/01/23 14:20 EGYE 081420Z AUTO 20016KT //// VV/// ///// Q//// 18.4mph 0°C 0°C -2.2°C
08/01/23 13:50 EGYE 081350Z AUTO 19017KT //// VV/// ///// Q//// 19.6mph 0°C 0°C -2.2°C
08/01/23 13:20 EGYE 081320Z AUTO 19017KT //// VV/// ///// Q//// 19.6mph 0°C 0°C -2.2°C
08/01/23 12:50 EGYE 081250Z AUTO 18016G27KT //// VV/// ///// Q//// 18.4mph 31.1mph 0°C 0°C -2.2°C
08/01/23 12:20 EGYE 081220Z AUTO 16013KT //// VV/// ///// Q//// 15.0mph 0°C 0°C -2.2°C
08/01/23 11:50 EGYE 081150Z AUTO 17013KT //// VV/// ///// Q//// 15.0mph 0°C 0°C -2.2°C
08/01/23 11:20 EGYE 081120Z AUTO 17014KT //// VV/// ///// Q//// 16.1mph 0°C 0°C -2.2°C
08/01/23 10:50 EGYE 081050Z AUTO 18015KT //// VV/// ///// Q//// 17.3mph 0°C 0°C -2.2°C
08/01/23 10:20 EGYE 081020Z AUTO 19014KT //// VV/// ///// Q//// 16.1mph 0°C 0°C -2.2°C
08/01/23 09:50 EGYE 080950Z AUTO 19015KT //// VV/// ///// Q//// 17.3mph 0°C 0°C -2.2°C
08/01/23 09:20 EGYE 080920Z AUTO 19012KT //// VV/// ///// Q//// 13.8mph 0°C 0°C -2.2°C
08/01/23 08:50 EGYE 080850Z AUTO 19012KT //// VV/// ///// Q//// 13.8mph 0°C 0°C -2.2°C
08/01/23 08:20 EGYE 080820Z AUTO 19013KT //// VV/// ///// Q//// 15.0mph 0°C 0°C -2.2°C
08/01/23 07:50 EGYE 080750Z AUTO 19014KT //// VV/// ///// Q//// 16.1mph 0°C 0°C -2.2°C
08/01/23 07:20 EGYE 080720Z AUTO 19013KT //// VV/// ///// Q//// 15.0mph 0°C 0°C -2.2°C
08/01/23 06:50 EGYE 080650Z AUTO 19013KT //// VV/// ///// Q//// 15.0mph 0°C 0°C -2.2°C
08/01/23 06:20 EGYE 080620Z AUTO 19012KT //// VV/// ///// Q//// 13.8mph 0°C 0°C -2.2°C
08/01/23 05:50 EGYE 080550Z AUTO 20014KT //// VV/// ///// Q//// 16.1mph 0°C 0°C -2.2°C
08/01/23 05:20 EGYE 080520Z AUTO 19012KT //// VV/// ///// Q//// 13.8mph 0°C 0°C -2.2°C
08/01/23 04:50 EGYE 080450Z AUTO 19013KT //// VV/// ///// Q//// 15.0mph 0°C 0°C -2.2°C
08/01/23 04:20 EGYE 080420Z AUTO 19013KT //// VV/// ///// Q//// 15.0mph 0°C 0°C -2.2°C
08/01/23 03:50 EGYE 080350Z AUTO 19013KT //// VV/// ///// Q//// 15.0mph 0°C 0°C -2.2°C
08/01/23 03:20 EGYE 080320Z AUTO 19013KT //// VV/// ///// Q//// 15.0mph 0°C 0°C -2.2°C
08/01/23 02:50 EGYE 080250Z AUTO 19014KT //// VV/// ///// Q//// 16.1mph 0°C 0°C -2.2°C
08/01/23 02:20 EGYE 080220Z AUTO 19012KT //// VV/// ///// Q//// 13.8mph 0°C 0°C -2.2°C
08/01/23 01:50 EGYE 080150Z AUTO 19011KT //// VV/// ///// Q//// 12.7mph 0°C 0°C -2.2°C
08/01/23 01:20 EGYE 080120Z AUTO 18011KT //// VV/// ///// Q//// 12.7mph 0°C 0°C -2.2°C
08/01/23 00:20 EGYE 080020Z AUTO 20016KT //// VV/// ///// Q//// 18.4mph 0°C 0°C -2.2°C
07/01/23 23:50 EGYE 072350Z AUTO 19017KT //// VV/// ///// Q//// 19.6mph 0°C 0°C -2.2°C
07/01/23 23:20 EGYE 072320Z AUTO 20015KT //// VV/// ///// Q//// 17.3mph 0°C 0°C -2.2°C
07/01/23 22:50 EGYE 072250Z AUTO 20017KT //// VV/// ///// Q//// 19.6mph 0°C 0°C -2.2°C
07/01/23 22:20 EGYE 072220Z AUTO 20017KT //// VV/// ///// Q//// 19.6mph 0°C 0°C -2.2°C
07/01/23 21:50 EGYE 072150Z AUTO 20016KT //// VV/// ///// Q//// 18.4mph 0°C 0°C -2.2°C
07/01/23 21:20 EGYE 072120Z AUTO 21016KT //// VV/// ///// Q//// 18.4mph 0°C 0°C -2.2°C
07/01/23 20:50 EGYE 072050Z AUTO 21016KT //// VV/// ///// Q//// 18.4mph 0°C 0°C -2.2°C
07/01/23 20:20 EGYE 072020Z AUTO 21015KT //// VV/// ///// Q//// 17.3mph 0°C 0°C -2.2°C
07/01/23 19:50 EGYE 071950Z AUTO 21016KT //// VV/// ///// Q//// 18.4mph 0°C 0°C -2.2°C
07/01/23 19:20 EGYE 071920Z AUTO 21015KT //// VV/// ///// Q//// 17.3mph 0°C 0°C -2.2°C
07/01/23 18:50 EGYE 071850Z AUTO 21016KT //// VV/// ///// Q//// 18.4mph 0°C 0°C -2.2°C
07/01/23 18:20 EGYE 071820Z AUTO 22018G33KT //// VV/// ///// Q//// 20.7mph 38.0mph 0°C 0°C -2.2°C
07/01/23 17:50 EGYE 071750Z AUTO 20018G30KT //// VV/// ///// Q//// 20.7mph 34.5mph 0°C 0°C -2.2°C
07/01/23 17:20 EGYE 071720Z AUTO 19013KT //// VV/// ///// Q//// 15.0mph 0°C 0°C -2.2°C
07/01/23 16:50 EGYE 071650Z AUTO 19012KT //// VV/// ///// Q//// 13.8mph 0°C 0°C -2.2°C
07/01/23 16:20 EGYE 071620Z AUTO 19010KT //// VV/// ///// Q//// 11.5mph 0°C 0°C -2.2°C
07/01/23 15:50 EGYE 071550Z AUTO 19011KT //// VV/// ///// Q//// 12.7mph 0°C 0°C -2.2°C
07/01/23 15:20 EGYE 071520Z AUTO 19011KT //// VV/// ///// Q//// 12.7mph 0°C 0°C -2.2°C
07/01/23 14:50 EGYE 071450Z AUTO 19014KT //// VV/// ///// Q//// 16.1mph 0°C 0°C -2.2°C
07/01/23 14:20 EGYE 071420Z AUTO 20015KT //// VV/// ///// Q//// 17.3mph 0°C 0°C -2.2°C
07/01/23 13:50 EGYE 071350Z AUTO 23009KT //// VV/// ///// Q//// 10.4mph 0°C 0°C -2.2°C
07/01/23 12:50 EGYE 071250Z AUTO 22011KT //// VV/// ///// Q//// 12.7mph 0°C 0°C -2.2°C
07/01/23 12:20 EGYE 071220Z AUTO 18016KT //// VV/// ///// Q//// 18.4mph 0°C 0°C -2.2°C
07/01/23 11:50 EGYE 071150Z AUTO 18017KT //// VV/// ///// Q//// 19.6mph 0°C 0°C -2.2°C
07/01/23 11:20 EGYE 071120Z AUTO 17017G28KT //// VV/// ///// Q//// 19.6mph 32.2mph 0°C 0°C -2.2°C
07/01/23 10:50 EGYE 071050Z AUTO 17018KT //// VV/// ///// Q//// 20.7mph 0°C 0°C -2.2°C
07/01/23 10:20 EGYE 071020Z AUTO 17019KT //// VV/// ///// Q//// 21.9mph 0°C 0°C -2.2°C
07/01/23 09:50 EGYE 070950Z AUTO 17021KT //// VV/// ///// Q//// 24.2mph 0°C 0°C -2.2°C
07/01/23 09:20 EGYE 070920Z AUTO 17023KT //// VV/// ///// Q//// 26.5mph 0°C 0°C -2.2°C
07/01/23 08:50 EGYE 070850Z AUTO 17022KT //// VV/// ///// Q//// 25.3mph 0°C 0°C -2.2°C
07/01/23 08:20 EGYE 070820Z AUTO 17022KT //// VV/// ///// Q//// 25.3mph 0°C 0°C -2.2°C
07/01/23 07:50 EGYE 070750Z AUTO 17021G33KT //// VV/// ///// Q//// 24.2mph 38.0mph 0°C 0°C -2.2°C
07/01/23 07:20 EGYE 070720Z AUTO 17021KT //// VV/// ///// Q//// 24.2mph 0°C 0°C -2.2°C